Portada
METAR-TAF:

METAR-TAF

Aeroports :

Maurici, Maurici

latitud: 20-26S, longitud: 057-40E, altitud: 55 m

Observació

L'informe es va fer fa 53 minuts, a les 00:00 UTC
Vent 4 kt del Nord-Oest
Temperatura 25°C
Humitat 89%
Pressió 1009 hPa
Visibilitat 10 km o més
Escasses núvols a una alçada de 1700 ft

METAR: FIMP 200000Z 32004KT 9999 FEW017 25/23 Q1009

Hora: 04:53 (00:53 UTC)

Pronòstic

L'informe es va fer fa 7 hores i 43 minuts, a les 17:10 UTC
Pronòstic vàlid del 19 a les 18 UTC al 21 a les 00 UTC
Vent 5 kt amb direcció variable
Visibilitat 10 km o més
Núvols disperses a una alçada de 1800 ft
Temporalment
l' 20 a les 13 UTC al 20 a les 15 UTC
Visibilitat: 5000 m
Escasses núvols a una alçada de 1000 ft
Cel ennuvolat a una alçada de 1300 ft
Cel ennuvolat a una alçada de 4500 ft
xàfecs de pluja

TAF: FIMP 191710Z 1918/2100 VRB05KT 9999 SCT018 TEMPO 2013/2015 5000 SHRA FEW010 BKN013 BKN045

Observacions i pronòstics meteorològics de més de 4000 aeroports (METAR i TAF).

Les estacions disponibles són els punts grocs i vermells al mapa.

Posi el ratolí al punt desitjat per veure el nom de l'estació.

Feu clic per veure les observacions i els pronòstics meteorològics.

Per canviar el mapa: feu clic els botons verds amb una creu de color negre per apropar; al botó verd amb un guió per allunyar la imatge; o en les fletxes verdes per a mapes adjacents.


METAR-TAF: